sensor_id;sensor_type;location;lat;lon;timestamp;P1;durP1;ratioP1;P2;durP2;ratioP2
62927;SDS011;51070;52.236;-0.892;2022-10-26T00:02:16;7.20;;;2.40;;
62927;SDS011;51070;52.236;-0.892;2022-10-26T00:04:42;7.80;;;1.70;;
62927;SDS011;51070;52.236;-0.892;2022-10-26T00:07:07;7.10;;;2.30;;
62927;SDS011;51070;52.236;-0.892;2022-10-26T00:09:32;4.00;;;1.70;;
62927;SDS011;51070;52.236;-0.892;2022-10-26T00:11:58;3.50;;;1.40;;
62927;SDS011;51070;52.236;-0.892;2022-10-26T00:14:23;4.60;;;1.90;;
62927;SDS011;51070;52.236;-0.892;2022-10-26T00:16:50;4.00;;;1.70;;
62927;SDS011;51070;52.236;-0.892;2022-10-26T00:19:15;5.70;;;2.00;;
62927;SDS011;51070;52.236;-0.892;2022-10-26T00:21:41;3.80;;;1.50;;
62927;SDS011;51070;52.236;-0.892;2022-10-26T00:24:06;3.10;;;1.80;;
62927;SDS011;51070;52.236;-0.892;2022-10-26T00:26:31;4.50;;;2.10;;
62927;SDS011;51070;52.236;-0.892;2022-10-26T00:28:57;5.00;;;1.60;;
62927;SDS011;51070;52.236;-0.892;2022-10-26T00:31:22;3.60;;;1.40;;
62927;SDS011;51070;52.236;-0.892;2022-10-26T00:33:52;4.10;;;1.50;;
62927;SDS011;51070;52.236;-0.892;2022-10-26T00:36:18;5.70;;;1.70;;
62927;SDS011;51070;52.236;-0.892;2022-10-26T00:38:51;4.30;;;1.70;;
62927;SDS011;51070;52.236;-0.892;2022-10-26T00:41:23;5.30;;;1.60;;
62927;SDS011;51070;52.236;-0.892;2022-10-26T00:43:51;8.80;;;1.80;;
62927;SDS011;51070;52.236;-0.892;2022-10-26T00:46:19;6.30;;;1.70;;
62927;SDS011;51070;52.236;-0.892;2022-10-26T00:49:15;6.40;;;2.20;;
62927;SDS011;51070;52.236;-0.892;2022-10-26T00:51:45;3.40;;;1.40;;
62927;SDS011;51070;52.236;-0.892;2022-10-26T00:54:16;3.10;;;1.40;;
62927;SDS011;51070;52.236;-0.892;2022-10-26T00:56:43;4.90;;;1.70;;
62927;SDS011;51070;52.236;-0.892;2022-10-26T00:59:11;4.00;;;1.90;;
62927;SDS011;51070;52.236;-0.892;2022-10-26T01:01:39;8.80;;;1.60;;
62927;SDS011;51070;52.236;-0.892;2022-10-26T01:04:07;2.50;;;1.50;;
62927;SDS011;51070;52.236;-0.892;2022-10-26T01:06:33;5.20;;;1.50;;
62927;SDS011;51070;52.236;-0.892;2022-10-26T01:09:02;4.10;;;1.40;;
62927;SDS011;51070;52.236;-0.892;2022-10-26T01:11:28;6.20;;;1.90;;
62927;SDS011;51070;52.236;-0.892;2022-10-26T01:13:53;8.90;;;1.70;;
62927;SDS011;51070;52.236;-0.892;2022-10-26T01:19:02;4.50;;;1.60;;
62927;SDS011;51070;52.236;-0.892;2022-10-26T01:24:06;3.90;;;1.60;;
62927;SDS011;51070;52.236;-0.892;2022-10-26T01:32:38;5.90;;;1.60;;
62927;SDS011;51070;52.236;-0.892;2022-10-26T01:38:13;8.60;;;1.70;;
62927;SDS011;51070;52.236;-0.892;2022-10-26T01:40:48;5.80;;;1.40;;
62927;SDS011;51070;52.236;-0.892;2022-10-26T01:43:19;4.70;;;1.60;;
62927;SDS011;51070;52.236;-0.892;2022-10-26T01:45:46;2.10;;;1.10;;
62927;SDS011;51070;52.236;-0.892;2022-10-26T01:48:15;5.10;;;1.80;;
62927;SDS011;51070;52.236;-0.892;2022-10-26T01:50:45;3.70;;;1.50;;
62927;SDS011;51070;52.236;-0.892;2022-10-26T01:53:14;6.10;;;1.40;;
62927;SDS011;51070;52.236;-0.892;2022-10-26T01:55:44;8.80;;;2.30;;
62927;SDS011;51070;52.236;-0.892;2022-10-26T02:00:54;3.70;;;1.40;;
62927;SDS011;51070;52.236;-0.892;2022-10-26T02:03:29;3.50;;;1.30;;
62927;SDS011;51070;52.236;-0.892;2022-10-26T02:06:05;7.60;;;2.20;;
62927;SDS011;51070;52.236;-0.892;2022-10-26T02:08:45;4.60;;;1.70;;
62927;SDS011;51070;52.236;-0.892;2022-10-26T02:11:30;5.50;;;1.60;;
62927;SDS011;51070;52.236;-0.892;2022-10-26T02:14:05;3.40;;;1.40;;
62927;SDS011;51070;52.236;-0.892;2022-10-26T02:16:38;6.40;;;2.00;;
62927;SDS011;51070;52.236;-0.892;2022-10-26T02:22:08;4.50;;;1.60;;
62927;SDS011;51070;52.236;-0.892;2022-10-26T02:24:39;5.60;;;1.60;;
62927;SDS011;51070;52.236;-0.892;2022-10-26T02:27:06;5.10;;;1.50;;
62927;SDS011;51070;52.236;-0.892;2022-10-26T02:29:36;6.50;;;1.60;;
62927;SDS011;51070;52.236;-0.892;2022-10-26T02:32:04;8.40;;;2.00;;
62927;SDS011;51070;52.236;-0.892;2022-10-26T02:34:32;4.10;;;1.50;;
62927;SDS011;51070;52.236;-0.892;2022-10-26T02:37:01;6.60;;;1.70;;
62927;SDS011;51070;52.236;-0.892;2022-10-26T02:39:29;8.80;;;1.60;;
62927;SDS011;51070;52.236;-0.892;2022-10-26T02:44:29;6.00;;;1.80;;
62927;SDS011;51070;52.236;-0.892;2022-10-26T02:47:00;8.10;;;2.20;;
62927;SDS011;51070;52.236;-0.892;2022-10-26T02:49:26;8.00;;;1.90;;
62927;SDS011;51070;52.236;-0.892;2022-10-26T02:54:40;8.60;;;2.00;;
62927;SDS011;51070;52.236;-0.892;2022-10-26T02:57:19;5.50;;;1.80;;
62927;SDS011;51070;52.236;-0.892;2022-10-26T02:59:51;5.10;;;1.30;;
62927;SDS011;51070;52.236;-0.892;2022-10-26T03:02:18;4.90;;;2.00;;
62927;SDS011;51070;52.236;-0.892;2022-10-26T03:04:46;7.30;;;1.90;;
62927;SDS011;51070;52.236;-0.892;2022-10-26T03:07:21;6.50;;;2.30;;
62927;SDS011;51070;52.236;-0.892;2022-10-26T03:09:47;4.10;;;1.60;;
62927;SDS011;51070;52.236;-0.892;2022-10-26T03:12:13;4.80;;;1.60;;
62927;SDS011;51070;52.236;-0.892;2022-10-26T03:14:38;8.40;;;2.50;;
62927;SDS011;51070;52.236;-0.892;2022-10-26T03:17:05;7.20;;;1.90;;
62927;SDS011;51070;52.236;-0.892;2022-10-26T03:19:31;7.70;;;1.80;;
62927;SDS011;51070;52.236;-0.892;2022-10-26T03:21:56;3.30;;;1.60;;
62927;SDS011;51070;52.236;-0.892;2022-10-26T03:24:22;6.60;;;2.10;;
62927;SDS011;51070;52.236;-0.892;2022-10-26T03:26:47;7.60;;;1.90;;
62927;SDS011;51070;52.236;-0.892;2022-10-26T03:29:12;6.00;;;1.90;;
62927;SDS011;51070;52.236;-0.892;2022-10-26T03:31:38;5.90;;;2.00;;
62927;SDS011;51070;52.236;-0.892;2022-10-26T03:34:03;5.00;;;2.10;;
62927;SDS011;51070;52.236;-0.892;2022-10-26T03:36:29;5.60;;;2.50;;
62927;SDS011;51070;52.236;-0.892;2022-10-26T03:38:54;4.60;;;2.10;;
62927;SDS011;51070;52.236;-0.892;2022-10-26T03:41:19;6.00;;;1.60;;
62927;SDS011;51070;52.236;-0.892;2022-10-26T03:43:45;6.50;;;2.40;;
62927;SDS011;51070;52.236;-0.892;2022-10-26T03:46:10;4.90;;;1.60;;
62927;SDS011;51070;52.236;-0.892;2022-10-26T03:48:35;4.10;;;1.60;;
62927;SDS011;51070;52.236;-0.892;2022-10-26T03:51:01;6.00;;;1.90;;
62927;SDS011;51070;52.236;-0.892;2022-10-26T03:53:26;4.70;;;2.20;;
62927;SDS011;51070;52.236;-0.892;2022-10-26T03:55:52;4.00;;;1.70;;
62927;SDS011;51070;52.236;-0.892;2022-10-26T03:58:17;10.50;;;2.80;;
62927;SDS011;51070;52.236;-0.892;2022-10-26T04:00:42;9.70;;;2.20;;
62927;SDS011;51070;52.236;-0.892;2022-10-26T04:03:08;8.40;;;1.70;;
62927;SDS011;51070;52.236;-0.892;2022-10-26T04:05:33;7.30;;;2.10;;
62927;SDS011;51070;52.236;-0.892;2022-10-26T04:07:59;5.20;;;2.00;;
62927;SDS011;51070;52.236;-0.892;2022-10-26T04:10:28;8.10;;;2.40;;
62927;SDS011;51070;52.236;-0.892;2022-10-26T04:12:54;8.80;;;2.50;;
62927;SDS011;51070;52.236;-0.892;2022-10-26T04:15:21;6.60;;;1.70;;
62927;SDS011;51070;52.236;-0.892;2022-10-26T04:17:47;9.40;;;2.20;;
62927;SDS011;51070;52.236;-0.892;2022-10-26T04:20:12;6.30;;;2.20;;
62927;SDS011;51070;52.236;-0.892;2022-10-26T04:22:38;6.60;;;2.00;;
62927;SDS011;51070;52.236;-0.892;2022-10-26T04:25:04;7.40;;;2.00;;
62927;SDS011;51070;52.236;-0.892;2022-10-26T04:27:31;7.80;;;3.30;;
62927;SDS011;51070;52.236;-0.892;2022-10-26T04:29:57;4.20;;;2.10;;
62927;SDS011;51070;52.236;-0.892;2022-10-26T04:32:22;3.80;;;1.90;;
62927;SDS011;51070;52.236;-0.892;2022-10-26T04:34:48;7.10;;;2.40;;
62927;SDS011;51070;52.236;-0.892;2022-10-26T04:37:13;5.80;;;2.40;;
62927;SDS011;51070;52.236;-0.892;2022-10-26T04:39:38;6.60;;;2.50;;
62927;SDS011;51070;52.236;-0.892;2022-10-26T04:42:04;3.20;;;2.10;;
62927;SDS011;51070;52.236;-0.892;2022-10-26T04:44:29;6.10;;;2.10;;
62927;SDS011;51070;52.236;-0.892;2022-10-26T04:46:54;3.70;;;2.40;;
62927;SDS011;51070;52.236;-0.892;2022-10-26T04:49:20;1.60;;;1.40;;
62927;SDS011;51070;52.236;-0.892;2022-10-26T04:51:45;6.60;;;2.30;;
62927;SDS011;51070;52.236;-0.892;2022-10-26T04:54:11;9.20;;;2.50;;
62927;SDS011;51070;52.236;-0.892;2022-10-26T04:56:36;6.70;;;2.00;;
62927;SDS011;51070;52.236;-0.892;2022-10-26T04:59:02;3.80;;;1.50;;
62927;SDS011;51070;52.236;-0.892;2022-10-26T05:01:27;9.90;;;2.20;;
62927;SDS011;51070;52.236;-0.892;2022-10-26T05:03:55;3.80;;;1.80;;
62927;SDS011;51070;52.236;-0.892;2022-10-26T05:06:21;6.00;;;1.80;;
62927;SDS011;51070;52.236;-0.892;2022-10-26T05:08:47;5.30;;;2.00;;
62927;SDS011;51070;52.236;-0.892;2022-10-26T05:11:12;8.30;;;2.50;;
62927;SDS011;51070;52.236;-0.892;2022-10-26T05:13:38;7.10;;;2.20;;
62927;SDS011;51070;52.236;-0.892;2022-10-26T05:16:04;2.50;;;1.40;;
62927;SDS011;51070;52.236;-0.892;2022-10-26T05:18:30;5.80;;;1.70;;
62927;SDS011;51070;52.236;-0.892;2022-10-26T05:20:55;12.00;;;2.10;;
62927;SDS011;51070;52.236;-0.892;2022-10-26T05:23:21;6.20;;;1.80;;
62927;SDS011;51070;52.236;-0.892;2022-10-26T05:25:47;6.00;;;1.70;;
62927;SDS011;51070;52.236;-0.892;2022-10-26T05:28:13;5.50;;;1.60;;
62927;SDS011;51070;52.236;-0.892;2022-10-26T05:30:40;7.60;;;2.00;;
62927;SDS011;51070;52.236;-0.892;2022-10-26T05:33:08;5.90;;;1.80;;
62927;SDS011;51070;52.236;-0.892;2022-10-26T05:35:34;4.30;;;1.60;;
62927;SDS011;51070;52.236;-0.892;2022-10-26T05:38:05;7.00;;;2.10;;
62927;SDS011;51070;52.236;-0.892;2022-10-26T05:40:32;2.70;;;1.20;;
62927;SDS011;51070;52.236;-0.892;2022-10-26T05:43:00;9.10;;;2.00;;
62927;SDS011;51070;52.236;-0.892;2022-10-26T05:45:26;2.10;;;1.10;;
62927;SDS011;51070;52.236;-0.892;2022-10-26T05:47:52;4.50;;;1.30;;
62927;SDS011;51070;52.236;-0.892;2022-10-26T05:50:18;4.30;;;1.30;;
62927;SDS011;51070;52.236;-0.892;2022-10-26T05:52:44;5.50;;;1.70;;
62927;SDS011;51070;52.236;-0.892;2022-10-26T05:55:12;4.00;;;1.50;;
62927;SDS011;51070;52.236;-0.892;2022-10-26T05:57:40;9.40;;;1.60;;
62927;SDS011;51070;52.236;-0.892;2022-10-26T06:00:17;7.40;;;1.80;;
62927;SDS011;51070;52.236;-0.892;2022-10-26T06:05:20;2.60;;;1.10;;
62927;SDS011;51070;52.236;-0.892;2022-10-26T06:07:48;1.90;;;1.20;;
62927;SDS011;51070;52.236;-0.892;2022-10-26T06:10:14;4.80;;;1.00;;
62927;SDS011;51070;52.236;-0.892;2022-10-26T06:12:40;5.20;;;1.40;;
62927;SDS011;51070;52.236;-0.892;2022-10-26T06:15:06;4.60;;;1.60;;
62927;SDS011;51070;52.236;-0.892;2022-10-26T06:23:49;6.10;;;1.90;;
62927;SDS011;51070;52.236;-0.892;2022-10-26T06:31:35;4.20;;;1.60;;
62927;SDS011;51070;52.236;-0.892;2022-10-26T06:34:01;6.60;;;1.30;;
62927;SDS011;51070;52.236;-0.892;2022-10-26T06:36:27;5.70;;;1.60;;
62927;SDS011;51070;52.236;-0.892;2022-10-26T06:38:57;2.50;;;1.10;;
62927;SDS011;51070;52.236;-0.892;2022-10-26T06:41:26;4.70;;;1.50;;
62927;SDS011;51070;52.236;-0.892;2022-10-26T06:43:55;6.90;;;1.30;;
62927;SDS011;51070;52.236;-0.892;2022-10-26T06:49:34;4.10;;;1.20;;
62927;SDS011;51070;52.236;-0.892;2022-10-26T06:52:19;7.90;;;1.30;;
62927;SDS011;51070;52.236;-0.892;2022-10-26T06:54:55;6.10;;;1.40;;
62927;SDS011;51070;52.236;-0.892;2022-10-26T06:57:22;5.90;;;1.30;;
62927;SDS011;51070;52.236;-0.892;2022-10-26T07:00:07;6.20;;;1.50;;
62927;SDS011;51070;52.236;-0.892;2022-10-26T07:02:43;3.40;;;1.20;;
62927;SDS011;51070;52.236;-0.892;2022-10-26T07:05:09;9.90;;;1.90;;
62927;SDS011;51070;52.236;-0.892;2022-10-26T07:07:39;8.30;;;1.50;;
62927;SDS011;51070;52.236;-0.892;2022-10-26T07:10:07;5.40;;;1.50;;
62927;SDS011;51070;52.236;-0.892;2022-10-26T07:12:34;8.50;;;1.60;;
62927;SDS011;51070;52.236;-0.892;2022-10-26T07:15:00;3.30;;;1.20;;
62927;SDS011;51070;52.236;-0.892;2022-10-26T07:17:26;6.00;;;1.50;;
62927;SDS011;51070;52.236;-0.892;2022-10-26T07:19:53;3.30;;;1.20;;
62927;SDS011;51070;52.236;-0.892;2022-10-26T07:22:19;9.20;;;1.90;;
62927;SDS011;51070;52.236;-0.892;2022-10-26T07:24:44;6.10;;;1.20;;
62927;SDS011;51070;52.236;-0.892;2022-10-26T07:27:14;5.50;;;1.70;;
62927;SDS011;51070;52.236;-0.892;2022-10-26T07:29:39;6.10;;;1.50;;
62927;SDS011;51070;52.236;-0.892;2022-10-26T07:32:04;7.80;;;1.60;;
62927;SDS011;51070;52.236;-0.892;2022-10-26T07:34:31;6.80;;;1.60;;
62927;SDS011;51070;52.236;-0.892;2022-10-26T07:36:57;5.60;;;1.60;;
62927;SDS011;51070;52.236;-0.892;2022-10-26T07:39:24;7.70;;;1.50;;
62927;SDS011;51070;52.236;-0.892;2022-10-26T07:41:49;3.50;;;1.30;;
62927;SDS011;51070;52.236;-0.892;2022-10-26T07:44:15;7.60;;;1.50;;
62927;SDS011;51070;52.236;-0.892;2022-10-26T07:46:40;4.70;;;0.90;;
62927;SDS011;51070;52.236;-0.892;2022-10-26T07:49:06;6.40;;;1.90;;
62927;SDS011;51070;52.236;-0.892;2022-10-26T07:51:31;7.80;;;1.40;;
62927;SDS011;51070;52.236;-0.892;2022-10-26T07:53:57;10.20;;;1.10;;
62927;SDS011;51070;52.236;-0.892;2022-10-26T07:56:22;8.90;;;1.50;;
62927;SDS011;51070;52.236;-0.892;2022-10-26T07:58:47;6.80;;;1.40;;
62927;SDS011;51070;52.236;-0.892;2022-10-26T08:01:16;3.10;;;1.30;;
62927;SDS011;51070;52.236;-0.892;2022-10-26T08:03:42;5.00;;;1.50;;
62927;SDS011;51070;52.236;-0.892;2022-10-26T08:06:07;3.00;;;1.20;;
62927;SDS011;51070;52.236;-0.892;2022-10-26T08:08:34;4.20;;;1.30;;
62927;SDS011;51070;52.236;-0.892;2022-10-26T08:11:00;7.40;;;1.40;;
62927;SDS011;51070;52.236;-0.892;2022-10-26T08:13:26;7.70;;;1.80;;
62927;SDS011;51070;52.236;-0.892;2022-10-26T08:15:59;11.60;;;2.00;;
62927;SDS011;51070;52.236;-0.892;2022-10-26T08:18:26;6.50;;;2.30;;
62927;SDS011;51070;52.236;-0.892;2022-10-26T08:20:52;4.00;;;1.50;;
62927;SDS011;51070;52.236;-0.892;2022-10-26T08:23:18;9.30;;;1.40;;
62927;SDS011;51070;52.236;-0.892;2022-10-26T08:25:44;6.80;;;2.10;;
62927;SDS011;51070;52.236;-0.892;2022-10-26T08:28:09;2.60;;;1.10;;
62927;SDS011;51070;52.236;-0.892;2022-10-26T08:30:34;9.90;;;1.50;;
62927;SDS011;51070;52.236;-0.892;2022-10-26T08:33:01;5.70;;;1.60;;
62927;SDS011;51070;52.236;-0.892;2022-10-26T08:35:28;3.00;;;1.00;;
62927;SDS011;51070;52.236;-0.892;2022-10-26T08:37:54;5.20;;;2.10;;
62927;SDS011;51070;52.236;-0.892;2022-10-26T08:40:24;5.20;;;1.70;;
62927;SDS011;51070;52.236;-0.892;2022-10-26T08:42:56;3.20;;;1.00;;
62927;SDS011;51070;52.236;-0.892;2022-10-26T08:45:29;4.70;;;1.00;;
62927;SDS011;51070;52.236;-0.892;2022-10-26T08:48:00;8.70;;;1.40;;
62927;SDS011;51070;52.236;-0.892;2022-10-26T08:50:32;4.80;;;1.20;;
62927;SDS011;51070;52.236;-0.892;2022-10-26T08:53:15;7.90;;;1.90;;
62927;SDS011;51070;52.236;-0.892;2022-10-26T08:55:50;4.60;;;1.50;;
62927;SDS011;51070;52.236;-0.892;2022-10-26T08:58:26;6.90;;;1.20;;
62927;SDS011;51070;52.236;-0.892;2022-10-26T09:00:56;5.40;;;1.20;;
62927;SDS011;51070;52.236;-0.892;2022-10-26T09:03:23;3.80;;;1.40;;
62927;SDS011;51070;52.236;-0.892;2022-10-26T09:08:24;3.70;;;1.10;;
62927;SDS011;51070;52.236;-0.892;2022-10-26T09:11:21;6.10;;;1.30;;
62927;SDS011;51070;52.236;-0.892;2022-10-26T09:22:06;6.00;;;1.60;;
62927;SDS011;51070;52.236;-0.892;2022-10-26T09:24:53;3.20;;;1.00;;
62927;SDS011;51070;52.236;-0.892;2022-10-26T09:29:54;3.80;;;1.10;;
62927;SDS011;51070;52.236;-0.892;2022-10-26T09:32:28;4.10;;;1.00;;
62927;SDS011;51070;52.236;-0.892;2022-10-26T09:35:04;4.90;;;1.30;;
62927;SDS011;51070;52.236;-0.892;2022-10-26T09:37:39;6.40;;;1.10;;
62927;SDS011;51070;52.236;-0.892;2022-10-26T09:42:55;3.70;;;0.90;;
62927;SDS011;51070;52.236;-0.892;2022-10-26T09:47:59;2.30;;;0.90;;
62927;SDS011;51070;52.236;-0.892;2022-10-26T09:50:39;4.90;;;1.30;;
62927;SDS011;51070;52.236;-0.892;2022-10-26T09:53:09;4.50;;;1.30;;
62927;SDS011;51070;52.236;-0.892;2022-10-26T09:55:38;3.40;;;1.10;;
62927;SDS011;51070;52.236;-0.892;2022-10-26T09:58:27;6.10;;;1.40;;
62927;SDS011;51070;52.236;-0.892;2022-10-26T10:00:55;5.30;;;1.10;;
62927;SDS011;51070;52.236;-0.892;2022-10-26T10:03:28;5.00;;;1.40;;
62927;SDS011;51070;52.236;-0.892;2022-10-26T10:06:13;5.00;;;1.20;;
62927;SDS011;51070;52.236;-0.892;2022-10-26T10:08:43;2.60;;;1.10;;
62927;SDS011;51070;52.236;-0.892;2022-10-26T10:11:35;2.20;;;1.00;;
62927;SDS011;51070;52.236;-0.892;2022-10-26T10:14:06;7.20;;;1.90;;
62927;SDS011;51070;52.236;-0.892;2022-10-26T10:16:33;5.00;;;1.70;;
62927;SDS011;51070;52.236;-0.892;2022-10-26T10:19:00;4.50;;;1.20;;
62927;SDS011;51070;52.236;-0.892;2022-10-26T10:21:38;3.20;;;1.00;;
62927;SDS011;51070;52.236;-0.892;2022-10-26T10:27:03;3.20;;;1.30;;
62927;SDS011;51070;52.236;-0.892;2022-10-26T10:29:45;2.90;;;0.90;;
62927;SDS011;51070;52.236;-0.892;2022-10-26T10:32:17;4.20;;;1.10;;
62927;SDS011;51070;52.236;-0.892;2022-10-26T10:35:00;2.00;;;0.90;;
62927;SDS011;51070;52.236;-0.892;2022-10-26T10:40:06;5.90;;;1.30;;
62927;SDS011;51070;52.236;-0.892;2022-10-26T10:42:39;1.90;;;1.30;;
62927;SDS011;51070;52.236;-0.892;2022-10-26T10:45:06;3.00;;;1.10;;
62927;SDS011;51070;52.236;-0.892;2022-10-26T10:50:27;6.10;;;1.00;;
62927;SDS011;51070;52.236;-0.892;2022-10-26T10:53:11;1.70;;;0.60;;
62927;SDS011;51070;52.236;-0.892;2022-10-26T10:55:38;3.40;;;0.90;;
62927;SDS011;51070;52.236;-0.892;2022-10-26T10:58:26;4.50;;;1.20;;
62927;SDS011;51070;52.236;-0.892;2022-10-26T11:01:01;6.60;;;0.80;;
62927;SDS011;51070;52.236;-0.892;2022-10-26T11:06:10;4.30;;;1.10;;
62927;SDS011;51070;52.236;-0.892;2022-10-26T11:08:45;3.80;;;1.20;;
62927;SDS011;51070;52.236;-0.892;2022-10-26T11:13:53;5.10;;;1.10;;
62927;SDS011;51070;52.236;-0.892;2022-10-26T11:16:26;4.60;;;1.30;;
62927;SDS011;51070;52.236;-0.892;2022-10-26T11:19:09;5.20;;;1.40;;
62927;SDS011;51070;52.236;-0.892;2022-10-26T11:21:50;5.00;;;1.40;;
62927;SDS011;51070;52.236;-0.892;2022-10-26T11:26:59;4.60;;;1.10;;
62927;SDS011;51070;52.236;-0.892;2022-10-26T11:32:07;7.10;;;1.50;;
62927;SDS011;51070;52.236;-0.892;2022-10-26T11:37:28;4.80;;;1.20;;
62927;SDS011;51070;52.236;-0.892;2022-10-26T11:43:00;4.10;;;1.00;;
62927;SDS011;51070;52.236;-0.892;2022-10-26T11:45:39;8.00;;;1.70;;
62927;SDS011;51070;52.236;-0.892;2022-10-26T11:48:13;4.20;;;1.00;;
62927;SDS011;51070;52.236;-0.892;2022-10-26T11:50:49;5.40;;;1.20;;
62927;SDS011;51070;52.236;-0.892;2022-10-26T11:53:40;7.40;;;1.50;;
62927;SDS011;51070;52.236;-0.892;2022-10-26T11:56:09;5.40;;;1.40;;
62927;SDS011;51070;52.236;-0.892;2022-10-26T11:58:40;6.00;;;1.50;;
62927;SDS011;51070;52.236;-0.892;2022-10-26T12:01:08;4.80;;;1.60;;
62927;SDS011;51070;52.236;-0.892;2022-10-26T12:03:40;5.80;;;1.10;;
62927;SDS011;51070;52.236;-0.892;2022-10-26T12:06:10;8.70;;;1.70;;
62927;SDS011;51070;52.236;-0.892;2022-10-26T12:08:42;7.20;;;1.70;;
62927;SDS011;51070;52.236;-0.892;2022-10-26T12:13:51;5.70;;;1.50;;
62927;SDS011;51070;52.236;-0.892;2022-10-26T12:18:53;5.40;;;1.80;;
62927;SDS011;51070;52.236;-0.892;2022-10-26T12:21:27;4.80;;;1.70;;
62927;SDS011;51070;52.236;-0.892;2022-10-26T12:23:56;5.30;;;1.40;;
62927;SDS011;51070;52.236;-0.892;2022-10-26T12:34:01;8.60;;;2.20;;
62927;SDS011;51070;52.236;-0.892;2022-10-26T12:39:30;6.30;;;1.50;;
62927;SDS011;51070;52.236;-0.892;2022-10-26T12:44:31;9.20;;;1.90;;
62927;SDS011;51070;52.236;-0.892;2022-10-26T12:46:56;7.20;;;1.80;;
62927;SDS011;51070;52.236;-0.892;2022-10-26T12:52:48;8.50;;;1.60;;
62927;SDS011;51070;52.236;-0.892;2022-10-26T12:55:29;9.20;;;2.00;;
62927;SDS011;51070;52.236;-0.892;2022-10-26T13:00:48;6.00;;;1.90;;
62927;SDS011;51070;52.236;-0.892;2022-10-26T13:03:22;13.70;;;2.70;;
62927;SDS011;51070;52.236;-0.892;2022-10-26T13:08:38;8.50;;;1.80;;
62927;SDS011;51070;52.236;-0.892;2022-10-26T13:11:12;8.80;;;2.30;;
62927;SDS011;51070;52.236;-0.892;2022-10-26T13:14:01;7.00;;;1.90;;
62927;SDS011;51070;52.236;-0.892;2022-10-26T13:16:31;11.10;;;2.20;;
62927;SDS011;51070;52.236;-0.892;2022-10-26T13:18:58;7.60;;;2.00;;
62927;SDS011;51070;52.236;-0.892;2022-10-26T13:21:24;12.90;;;2.20;;
62927;SDS011;51070;52.236;-0.892;2022-10-26T13:26:26;8.50;;;2.20;;
62927;SDS011;51070;52.236;-0.892;2022-10-26T13:33:57;6.20;;;1.60;;
62927;SDS011;51070;52.236;-0.892;2022-10-26T13:36:40;12.10;;;2.00;;
62927;SDS011;51070;52.236;-0.892;2022-10-26T13:41:37;10.70;;;2.20;;
62927;SDS011;51070;52.236;-0.892;2022-10-26T13:44:05;7.30;;;2.20;;
62927;SDS011;51070;52.236;-0.892;2022-10-26T13:46:38;8.80;;;2.80;;
62927;SDS011;51070;52.236;-0.892;2022-10-26T13:49:17;11.60;;;3.00;;
62927;SDS011;51070;52.236;-0.892;2022-10-26T13:51:48;14.70;;;3.50;;
62927;SDS011;51070;52.236;-0.892;2022-10-26T13:57:03;8.90;;;2.40;;
62927;SDS011;51070;52.236;-0.892;2022-10-26T13:59:37;7.50;;;2.20;;
62927;SDS011;51070;52.236;-0.892;2022-10-26T14:02:23;12.00;;;2.70;;
62927;SDS011;51070;52.236;-0.892;2022-10-26T14:04:52;14.00;;;2.80;;
62927;SDS011;51070;52.236;-0.892;2022-10-26T14:07:24;11.60;;;2.50;;
62927;SDS011;51070;52.236;-0.892;2022-10-26T14:09:57;7.70;;;2.30;;
62927;SDS011;51070;52.236;-0.892;2022-10-26T14:12:23;9.70;;;2.70;;
62927;SDS011;51070;52.236;-0.892;2022-10-26T14:14:53;11.70;;;2.80;;
62927;SDS011;51070;52.236;-0.892;2022-10-26T14:17:26;11.20;;;2.60;;
62927;SDS011;51070;52.236;-0.892;2022-10-26T14:19:52;15.60;;;3.20;;
62927;SDS011;51070;52.236;-0.892;2022-10-26T14:22:22;12.10;;;2.70;;
62927;SDS011;51070;52.236;-0.892;2022-10-26T14:24:55;10.80;;;2.80;;
62927;SDS011;51070;52.236;-0.892;2022-10-26T14:27:23;12.50;;;2.80;;
62927;SDS011;51070;52.236;-0.892;2022-10-26T14:29:51;11.90;;;3.20;;
62927;SDS011;51070;52.236;-0.892;2022-10-26T14:32:25;15.60;;;3.00;;
62927;SDS011;51070;52.236;-0.892;2022-10-26T14:34:56;13.10;;;3.90;;
62927;SDS011;51070;52.236;-0.892;2022-10-26T14:37:24;13.10;;;3.20;;
62927;SDS011;51070;52.236;-0.892;2022-10-26T14:39:59;5.70;;;2.20;;
62927;SDS011;51070;52.236;-0.892;2022-10-26T14:42:30;8.70;;;2.50;;
62927;SDS011;51070;52.236;-0.892;2022-10-26T14:45:04;8.90;;;2.20;;
62927;SDS011;51070;52.236;-0.892;2022-10-26T14:47:31;10.40;;;2.50;;
62927;SDS011;51070;52.236;-0.892;2022-10-26T14:49:59;10.40;;;2.60;;
62927;SDS011;51070;52.236;-0.892;2022-10-26T14:52:29;10.10;;;3.60;;
62927;SDS011;51070;52.236;-0.892;2022-10-26T14:54:58;13.30;;;2.30;;
62927;SDS011;51070;52.236;-0.892;2022-10-26T14:57:32;10.40;;;2.80;;
62927;SDS011;51070;52.236;-0.892;2022-10-26T15:00:00;9.60;;;2.60;;
62927;SDS011;51070;52.236;-0.892;2022-10-26T15:02:37;11.60;;;2.90;;
62927;SDS011;51070;52.236;-0.892;2022-10-26T15:05:15;6.30;;;1.70;;
62927;SDS011;51070;52.236;-0.892;2022-10-26T15:07:43;7.80;;;1.90;;
62927;SDS011;51070;52.236;-0.892;2022-10-26T15:15:51;13.00;;;2.30;;
62927;SDS011;51070;52.236;-0.892;2022-10-26T15:18:28;10.60;;;2.50;;
62927;SDS011;51070;52.236;-0.892;2022-10-26T15:20:57;8.90;;;2.40;;
62927;SDS011;51070;52.236;-0.892;2022-10-26T15:23:23;10.00;;;2.50;;
62927;SDS011;51070;52.236;-0.892;2022-10-26T15:28:22;15.70;;;3.00;;
62927;SDS011;51070;52.236;-0.892;2022-10-26T15:36:26;10.60;;;3.10;;
62927;SDS011;51070;52.236;-0.892;2022-10-26T15:38:52;9.00;;;2.90;;
62927;SDS011;51070;52.236;-0.892;2022-10-26T15:41:25;12.10;;;2.60;;
62927;SDS011;51070;52.236;-0.892;2022-10-26T15:43:55;11.40;;;2.70;;
62927;SDS011;51070;52.236;-0.892;2022-10-26T15:46:22;13.00;;;3.40;;
62927;SDS011;51070;52.236;-0.892;2022-10-26T15:48:55;12.20;;;2.20;;
62927;SDS011;51070;52.236;-0.892;2022-10-26T15:51:23;10.00;;;2.00;;
62927;SDS011;51070;52.236;-0.892;2022-10-26T15:53:49;12.00;;;2.70;;
62927;SDS011;51070;52.236;-0.892;2022-10-26T15:56:18;9.10;;;2.40;;
62927;SDS011;51070;52.236;-0.892;2022-10-26T15:58:47;9.70;;;2.30;;
62927;SDS011;51070;52.236;-0.892;2022-10-26T16:01:21;8.80;;;2.30;;
62927;SDS011;51070;52.236;-0.892;2022-10-26T16:03:48;12.90;;;2.60;;
62927;SDS011;51070;52.236;-0.892;2022-10-26T16:09:19;10.20;;;2.90;;
62927;SDS011;51070;52.236;-0.892;2022-10-26T16:11:44;20.90;;;4.30;;
62927;SDS011;51070;52.236;-0.892;2022-10-26T16:14:10;11.90;;;2.20;;
62927;SDS011;51070;52.236;-0.892;2022-10-26T16:16:36;13.20;;;3.30;;
62927;SDS011;51070;52.236;-0.892;2022-10-26T16:19:03;9.70;;;2.10;;
62927;SDS011;51070;52.236;-0.892;2022-10-26T16:21:28;13.70;;;3.00;;
62927;SDS011;51070;52.236;-0.892;2022-10-26T16:23:54;9.70;;;2.50;;
62927;SDS011;51070;52.236;-0.892;2022-10-26T16:26:21;13.30;;;2.80;;
62927;SDS011;51070;52.236;-0.892;2022-10-26T16:28:47;6.40;;;2.50;;
62927;SDS011;51070;52.236;-0.892;2022-10-26T16:31:14;13.90;;;4.10;;
62927;SDS011;51070;52.236;-0.892;2022-10-26T16:33:41;10.70;;;2.60;;
62927;SDS011;51070;52.236;-0.892;2022-10-26T16:36:08;9.30;;;2.60;;
62927;SDS011;51070;52.236;-0.892;2022-10-26T16:38:35;11.30;;;2.80;;
62927;SDS011;51070;52.236;-0.892;2022-10-26T16:41:13;13.00;;;3.70;;
62927;SDS011;51070;52.236;-0.892;2022-10-26T16:43:43;10.90;;;2.70;;
62927;SDS011;51070;52.236;-0.892;2022-10-26T16:46:15;12.10;;;2.70;;
62927;SDS011;51070;52.236;-0.892;2022-10-26T16:48:43;8.70;;;2.30;;
62927;SDS011;51070;52.236;-0.892;2022-10-26T16:51:18;11.50;;;2.70;;
62927;SDS011;51070;52.236;-0.892;2022-10-26T16:53:49;10.70;;;2.40;;
62927;SDS011;51070;52.236;-0.892;2022-10-26T16:56:20;7.80;;;2.00;;
62927;SDS011;51070;52.236;-0.892;2022-10-26T16:58:47;10.40;;;2.60;;
62927;SDS011;51070;52.236;-0.892;2022-10-26T17:01:13;11.10;;;2.40;;
62927;SDS011;51070;52.236;-0.892;2022-10-26T17:03:42;15.60;;;2.90;;
62927;SDS011;51070;52.236;-0.892;2022-10-26T17:06:09;10.80;;;2.20;;
62927;SDS011;51070;52.236;-0.892;2022-10-26T17:08:34;9.70;;;2.20;;
62927;SDS011;51070;52.236;-0.892;2022-10-26T17:11:02;15.50;;;3.50;;